Time;durP1;ratioP1;P1;durP2;ratioP2;P2;SDS_P1;SDS_P2;PMS_P1;PMS_P2;Temp;Humidity;BMP_temperature;BMP_pressure;BME280_temperature;BME280_humidity;BME280_pressure;Samples;Min_cycle;Max_cycle;Signal;HPM_P1;HPM_P2
2022/04/08 00:02:02;;;;;;;;;2.50;0.25;;;;;11.34;51.65;100209.97;5071049;28;45333;-65
2022/04/08 00:04:30;;;;;;;;;0.00;0.00;;;;;11.34;51.54;100202.03;5076488;28;45330;-65
2022/04/08 00:06:56;;;;;;;;;0.75;0.00;;;;;11.34;51.95;100197.63;5081808;28;46204;-67
2022/04/08 00:09:22;;;;;;;;;1.75;0.00;;;;;11.37;51.38;100202.66;5068718;28;45393;-68
2022/04/08 00:11:47;;;;;;;;;1.00;0.00;;;;;11.36;51.39;100192.22;5065822;28;45350;-68
2022/04/08 00:14:13;;;;;;;;;0.00;0.00;;;;;11.38;51.90;100193.81;5069502;28;45386;-67
2022/04/08 00:16:39;;;;;;;;;1.00;0.00;;;;;11.42;51.73;100197.91;5071861;28;47579;-68
2022/04/08 00:19:05;;;;;;;;;0.25;0.00;;;;;11.42;51.86;100197.91;5072531;28;45340;-67
2022/04/08 00:21:30;;;;;;;;;1.00;0.00;;;;;11.44;51.83;100195.16;5072264;28;45177;-68
2022/04/08 00:23:56;;;;;;;;;4.25;0.00;;;;;11.40;52.02;100185.78;5073877;28;45287;-68
2022/04/08 00:26:21;;;;;;;;;0.50;0.50;;;;;11.40;51.65;100176.09;5073747;28;46209;-68
2022/04/08 00:28:47;;;;;;;;;0.75;0.00;;;;;11.41;51.58;100182.19;5070180;28;45497;-68
2022/04/08 00:31:12;;;;;;;;;1.00;1.00;;;;;11.43;51.77;100178.50;5070260;28;45427;-68
2022/04/08 00:33:38;;;;;;;;;3.50;0.00;;;;;11.42;51.90;100184.72;5067183;28;45586;-67
2022/04/08 00:36:04;;;;;;;;;1.00;0.00;;;;;11.43;51.98;100182.94;5070456;28;45808;-68
2022/04/08 00:38:30;;;;;;;;;0.00;0.00;;;;;11.44;51.93;100182.81;5070095;28;45450;-67
2022/04/08 00:40:55;;;;;;;;;1.25;0.00;;;;;11.45;51.72;100186.28;5072741;28;45411;-67
2022/04/08 00:43:33;;;;;;;;;0.00;0.00;;;;;11.45;52.14;100181.00;5071754;27;45444;-67
2022/04/08 00:45:58;;;;;;;;;1.25;0.75;;;;;11.46;52.05;100172.19;5069423;28;45902;-67
2022/04/08 00:48:24;;;;;;;;;0.00;0.00;;;;;11.41;52.11;100167.22;5071889;27;45414;-67
2022/04/08 00:50:49;;;;;;;;;4.25;1.00;;;;;11.39;52.48;100166.50;5077057;27;45223;-67
2022/04/08 00:53:15;;;;;;;;;0.00;0.00;;;;;11.40;51.88;100159.41;5075328;27;45437;-67
2022/04/08 00:55:41;;;;;;;;;3.75;0.00;;;;;11.39;52.66;100158.59;5070449;27;46283;-67
2022/04/08 00:58:07;;;;;;;;;0.25;0.00;;;;;11.39;52.20;100160.38;5069305;27;45813;-67
2022/04/08 01:00:37;;;;;;;;;1.75;0.00;;;;;11.38;52.64;100156.91;5071066;28;45441;-67
2022/04/08 01:03:04;;;;;;;;;2.25;0.00;;;;;11.39;52.90;100155.94;5069510;28;45427;-67
2022/04/08 01:05:31;;;;;;;;;1.25;0.00;;;;;11.40;52.96;100155.00;5066746;28;45504;-67
2022/04/08 01:07:57;;;;;;;;;1.00;0.00;;;;;11.38;52.79;100156.06;5071916;28;45255;-67
2022/04/08 01:10:22;;;;;;;;;2.00;0.00;;;;;11.39;52.51;100155.09;5072834;28;45326;-67
2022/04/08 01:12:49;;;;;;;;;2.00;0.00;;;;;11.38;52.94;100151.63;5068481;28;45480;-67
2022/04/08 01:15:20;;;;;;;;;3.00;0.50;;;;;11.37;52.71;100149.91;5069302;27;45344;-68
2022/04/08 01:17:47;;;;;;;;;1.00;0.00;;;;;11.37;52.76;100144.66;5071905;28;45330;-68
2022/04/08 01:20:12;;;;;;;;;0.00;0.00;;;;;11.37;52.53;100142.00;5070064;28;46492;-68
2022/04/08 01:22:39;;;;;;;;;0.75;0.00;;;;;11.38;53.05;100148.16;5070160;28;45525;-67
2022/04/08 01:25:06;;;;;;;;;3.00;0.00;;;;;11.35;53.11;100133.38;5068685;28;46221;-68
2022/04/08 01:27:32;;;;;;;;;2.00;0.00;;;;;11.32;53.33;100133.59;5070373;28;45468;-67
2022/04/08 01:29:58;;;;;;;;;0.25;0.25;;;;;11.35;53.18;100132.53;5073502;28;45406;-67
2022/04/08 01:32:24;;;;;;;;;2.00;0.00;;;;;11.36;53.24;100142.13;5073036;28;45522;-67
2022/04/08 01:34:52;;;;;;;;;2.25;0.00;;;;;11.38;53.09;100132.34;5074720;28;45394;-67
2022/04/08 01:37:18;;;;;;;;;1.00;0.00;;;;;11.37;53.25;100125.34;5075078;28;45248;-67
2022/04/08 01:39:43;;;;;;;;;1.00;0.00;;;;;11.36;53.20;100131.56;5075701;28;45349;-68
2022/04/08 01:42:09;;;;;;;;;1.25;1.00;;;;;11.38;53.36;100127.06;5074523;28;45313;-67
2022/04/08 01:44:35;;;;;;;;;0.00;0.00;;;;;11.38;53.04;100125.25;5072797;28;46201;-67
2022/04/08 01:47:01;;;;;;;;;2.00;0.00;;;;;11.41;53.08;100129.47;5072601;28;45335;-68
2022/04/08 01:49:27;;;;;;;;;1.00;0.00;;;;;11.42;53.42;100118.78;5070021;28;45364;-67
2022/04/08 01:51:53;;;;;;;;;0.75;0.75;;;;;11.44;53.48;100113.41;5074672;28;45548;-67
2022/04/08 01:54:18;;;;;;;;;0.00;0.00;;;;;11.47;53.25;100121.09;5074571;28;45960;-67
2022/04/08 01:56:44;;;;;;;;;1.50;0.00;;;;;11.47;53.25;100118.47;5074858;28;45262;-67
2022/04/08 01:59:09;;;;;;;;;1.00;0.00;;;;;11.48;53.14;100114.03;5074223;28;45399;-67
2022/04/08 02:01:35;;;;;;;;;0.50;0.00;;;;;11.51;53.03;100119.91;5072278;28;45239;-68
2022/04/08 02:04:00;;;;;;;;;0.50;0.00;;;;;11.52;53.18;100118.97;5072247;28;45456;-67
2022/04/08 02:06:26;;;;;;;;;2.00;0.00;;;;;11.51;53.03;100114.63;5071463;28;45254;-67
2022/04/08 02:08:53;;;;;;;;;3.00;1.00;;;;;11.53;53.10;100115.38;5071747;28;45140;-67
2022/04/08 02:11:20;;;;;;;;;2.00;0.00;;;;;11.52;53.28;100123.41;5072904;28;45485;-68
2022/04/08 02:13:46;;;;;;;;;0.25;0.00;;;;;11.52;52.99;100118.13;5072659;28;45531;-68
2022/04/08 02:16:12;;;;;;;;;3.50;0.00;;;;;11.54;52.99;100119.72;5070941;28;45511;-68
2022/04/08 02:18:38;;;;;;;;;1.75;0.00;;;;;11.53;52.82;100109.25;5071485;28;45438;-67
2022/04/08 02:21:04;;;;;;;;;0.50;0.00;;;;;11.53;52.98;100111.88;5071921;28;45406;-67
2022/04/08 02:23:30;;;;;;;;;2.00;0.00;;;;;11.52;53.10;100111.03;5071835;28;45272;-67
2022/04/08 02:25:55;;;;;;;;;0.00;0.00;;;;;11.50;53.17;100110.31;5073616;28;45228;-68
2022/04/08 02:28:21;;;;;;;;;0.00;0.00;;;;;11.49;53.04;100113.09;5073459;28;45401;-68
2022/04/08 02:30:48;;;;;;;;;1.50;0.00;;;;;11.49;53.10;100111.28;5074153;28;45364;-67
2022/04/08 02:33:13;;;;;;;;;0.00;0.00;;;;;11.49;53.17;100105.16;5073325;28;45376;-67
2022/04/08 02:35:39;;;;;;;;;0.75;0.00;;;;;11.50;53.17;100102.41;5072313;28;45322;-67
2022/04/08 02:38:04;;;;;;;;;1.00;0.00;;;;;11.49;53.43;100106.00;5071556;28;45349;-67
2022/04/08 02:40:30;;;;;;;;;1.50;0.00;;;;;11.51;53.08;100096.19;5074038;28;45402;-68
2022/04/08 02:42:55;;;;;;;;;2.00;0.00;;;;;11.49;53.48;100094.63;5070895;28;45999;-68
2022/04/08 02:45:21;;;;;;;;;0.25;0.00;;;;;11.44;53.75;100093.16;5072275;28;45314;-68
2022/04/08 02:47:46;;;;;;;;;0.75;0.00;;;;;11.45;53.66;100086.94;5071884;28;45352;-68
2022/04/08 02:50:13;;;;;;;;;0.00;0.00;;;;;11.46;53.42;100087.78;5072928;28;45544;-68
2022/04/08 02:52:38;;;;;;;;;2.25;0.00;;;;;11.45;53.49;100086.94;5070728;28;45366;-67
2022/04/08 02:55:05;;;;;;;;;1.50;0.00;;;;;11.46;53.53;100082.50;5071181;28;45386;-66
2022/04/08 02:57:31;;;;;;;;;0.50;0.00;;;;;11.50;53.29;100070.75;5071596;28;45142;-66
2022/04/08 02:59:58;;;;;;;;;3.75;1.00;;;;;11.51;53.78;100071.59;5071182;28;45171;-67
2022/04/08 03:02:23;;;;;;;;;1.00;0.50;;;;;11.49;53.91;100065.59;5071014;28;46251;-66
2022/04/08 03:04:49;;;;;;;;;0.00;0.00;;;;;11.47;53.63;100057.81;5070744;28;45270;-67
2022/04/08 03:07:14;;;;;;;;;1.75;0.00;;;;;11.46;53.52;100064.88;5078062;28;45439;-67
2022/04/08 03:09:40;;;;;;;;;1.50;0.00;;;;;11.46;54.17;100061.41;5072050;28;46456;-67
2022/04/08 03:12:06;;;;;;;;;0.50;0.00;;;;;11.47;54.12;100068.38;5070975;28;45562;-67
2022/04/08 03:14:31;;;;;;;;;0.00;0.00;;;;;11.49;54.02;100061.16;5070830;28;45485;-67
2022/04/08 03:16:57;;;;;;;;;0.00;0.00;;;;;11.50;54.04;100056.72;5069979;28;45437;-67
2022/04/08 03:19:23;;;;;;;;;0.00;0.00;;;;;11.50;53.94;100048.81;5071475;28;45463;-68
2022/04/08 03:21:48;;;;;;;;;2.25;1.00;;;;;11.51;53.99;100050.50;5070871;28;45925;-67
2022/04/08 03:24:14;;;;;;;;;0.50;0.00;;;;;11.54;54.05;100058.22;5072590;28;45437;-67
2022/04/08 03:26:40;;;;;;;;;1.00;0.00;;;;;11.54;54.26;100048.50;5073066;28;45542;-68
2022/04/08 03:29:05;;;;;;;;;0.25;0.25;;;;;11.51;54.13;100043.44;5070328;28;45185;-68
2022/04/08 03:31:31;;;;;;;;;0.75;0.00;;;;;11.48;54.04;100043.66;5069540;28;45247;-66
2022/04/08 03:33:56;;;;;;;;;0.00;0.00;;;;;11.51;53.99;100037.31;5071952;28;45238;-67
2022/04/08 03:36:22;;;;;;;;;0.25;0.00;;;;;11.49;54.42;100045.34;5071610;28;45421;-67
2022/04/08 03:38:47;;;;;;;;;1.00;0.00;;;;;11.50;54.54;100039.13;5073301;28;45455;-67
2022/04/08 03:41:13;;;;;;;;;2.00;0.00;;;;;11.48;54.87;100046.31;5073595;28;45253;-67
2022/04/08 03:43:38;;;;;;;;;1.00;0.00;;;;;11.49;54.73;100036.59;5071490;28;45384;-67
2022/04/08 03:46:04;;;;;;;;;0.50;0.25;;;;;11.52;55.00;100033.72;5070611;28;45552;-67
2022/04/08 03:48:29;;;;;;;;;2.00;0.25;;;;;11.51;54.97;100030.25;5074228;28;45852;-67
2022/04/08 03:50:55;;;;;;;;;3.00;0.00;;;;;11.50;55.22;100020.66;5070357;28;45458;-67
2022/04/08 03:53:20;;;;;;;;;0.00;0.00;;;;;11.51;55.52;100017.06;5072383;28;45316;-67
2022/04/08 03:55:47;;;;;;;;;1.00;0.00;;;;;11.49;55.84;100008.41;5074322;28;45433;-67
2022/04/08 03:58:12;;;;;;;;;1.00;0.00;;;;;11.51;56.28;99997.75;5071693;28;45220;-67
2022/04/08 04:00:39;;;;;;;;;1.00;0.00;;;;;11.49;56.12;99989.13;5071816;28;45454;-67
2022/04/08 04:03:05;;;;;;;;;0.00;0.00;;;;;11.45;56.56;99989.38;5069970;28;45286;-67
2022/04/08 04:05:34;;;;;;;;;0.25;0.25;;;;;11.44;56.88;99984.19;5068651;28;45445;-67
2022/04/08 04:08:00;;;;;;;;;5.25;1.50;;;;;11.41;57.07;99985.25;5071090;28;45462;-67
2022/04/08 04:10:26;;;;;;;;;2.75;0.00;;;;;11.42;57.87;99978.19;5069911;28;47504;-68
2022/04/08 04:12:52;;;;;;;;;2.25;1.00;;;;;11.43;57.87;99982.50;5072260;28;45498;-67
2022/04/08 04:15:18;;;;;;;;;1.75;0.00;;;;;11.44;58.10;99969.19;5072860;28;45509;-67
2022/04/08 04:17:43;;;;;;;;;2.00;0.00;;;;;11.42;57.86;99973.75;5071835;28;45370;-67
2022/04/08 04:20:09;;;;;;;;;0.50;0.00;;;;;11.39;57.84;99968.72;5072072;28;45877;-67
2022/04/08 04:22:35;;;;;;;;;2.00;0.00;;;;;11.38;58.31;99966.19;5070508;28;45440;-68
2022/04/08 04:25:00;;;;;;;;;2.00;1.00;;;;;11.39;58.37;99962.59;5070262;28;45450;-68
2022/04/08 04:27:26;;;;;;;;;3.00;1.00;;;;;11.35;58.54;99951.44;5074218;28;45572;-67
2022/04/08 04:29:51;;;;;;;;;1.50;0.00;;;;;11.35;58.52;99953.22;5073009;28;46200;-67
2022/04/08 04:32:19;;;;;;;;;0.00;0.00;;;;;11.31;58.17;99944.72;5070366;28;45234;-67
2022/04/08 04:34:45;;;;;;;;;1.00;1.00;;;;;11.27;58.75;99937.16;5071273;28;45371;-68
2022/04/08 04:37:11;;;;;;;;;0.75;0.00;;;;;11.26;59.00;99928.41;5069786;28;45517;-67
2022/04/08 04:39:37;;;;;;;;;0.25;0.00;;;;;11.23;59.65;99927.81;5071815;28;45256;-67
2022/04/08 04:42:03;;;;;;;;;3.00;0.00;;;;;11.17;59.24;99916.75;5071144;28;45367;-68
2022/04/08 04:44:29;;;;;;;;;2.25;0.00;;;;;11.15;59.81;99918.66;5071896;28;45243;-67
2022/04/08 04:46:55;;;;;;;;;2.50;0.75;;;;;11.13;59.99;99912.66;5069899;28;45386;-67
2022/04/08 04:49:22;;;;;;;;;2.50;0.00;;;;;11.12;60.37;99915.41;5068838;28;45517;-67
2022/04/08 04:51:48;;;;;;;;;2.00;0.25;;;;;11.11;60.06;99897.91;5072155;28;45484;-67
2022/04/08 04:54:14;;;;;;;;;1.25;0.75;;;;;11.12;61.03;99889.03;5071885;28;45396;-67
2022/04/08 04:56:39;;;;;;;;;0.00;0.00;;;;;11.12;60.78;99881.97;5070509;28;45243;-67
2022/04/08 04:59:05;;;;;;;;;0.00;0.00;;;;;11.12;61.07;99878.50;5070515;28;45329;-67
2022/04/08 05:01:30;;;;;;;;;1.00;0.00;;;;;11.12;61.40;99870.59;5067552;28;45520;-67
2022/04/08 05:03:56;;;;;;;;;3.75;0.50;;;;;11.13;61.54;99865.19;5067821;28;45460;-67
2022/04/08 05:06:21;;;;;;;;;1.50;0.00;;;;;11.16;61.78;99858.88;5070122;28;45386;-67
2022/04/08 05:08:47;;;;;;;;;3.50;0.00;;;;;11.18;61.80;99854.31;5068561;28;45324;-68
2022/04/08 05:11:12;;;;;;;;;1.25;0.00;;;;;11.19;62.36;99848.09;5070885;28;45401;-68
2022/04/08 05:13:38;;;;;;;;;1.25;0.75;;;;;11.18;62.05;99841.97;5072146;28;45579;-66
2022/04/08 05:16:03;;;;;;;;;1.00;0.00;;;;;11.17;61.75;99834.19;5071216;28;45600;-66
2022/04/08 05:18:29;;;;;;;;;1.00;0.00;;;;;11.15;61.97;99830.84;5068424;28;45563;-62
2022/04/08 05:20:55;;;;;;;;;0.25;0.00;;;;;11.14;61.99;99830.00;5063322;28;45491;-62
2022/04/08 05:23:20;;;;;;;;;2.50;2.00;;;;;11.15;61.04;99818.50;5069722;28;45432;-62
2022/04/08 05:25:46;;;;;;;;;2.00;1.00;;;;;11.12;61.06;99816.09;5070891;28;45407;-63
2022/04/08 05:28:12;;;;;;;;;2.50;0.00;;;;;11.14;61.35;99810.72;5067410;28;45716;-63
2022/04/08 05:30:38;;;;;;;;;2.00;1.00;;;;;11.15;62.06;99812.41;5069594;28;45407;-63
2022/04/08 05:33:04;;;;;;;;;3.00;0.00;;;;;11.14;61.49;99802.81;5071777;28;45375;-63
2022/04/08 05:35:30;;;;;;;;;0.75;0.75;;;;;11.14;61.27;99800.19;5070139;28;45360;-63
2022/04/08 05:37:55;;;;;;;;;2.00;1.00;;;;;11.13;62.02;99798.47;5072029;28;45783;-63
2022/04/08 05:40:21;;;;;;;;;1.25;0.00;;;;;11.13;61.61;99787.94;5068055;28;45501;-63
2022/04/08 05:42:48;;;;;;;;;1.25;0.75;;;;;11.14;60.83;99787.00;5069379;28;45461;-63
2022/04/08 05:45:16;;;;;;;;;4.00;2.00;;;;;11.12;59.98;99778.34;5070751;28;45309;-69
2022/04/08 05:47:42;;;;;;;;;0.00;0.00;;;;;11.08;59.18;99780.38;5061860;28;46223;-64
2022/04/08 05:50:08;;;;;;;;;1.00;0.50;;;;;11.06;60.18;99766.50;5066439;28;45341;-64
2022/04/08 05:52:34;;;;;;;;;0.00;0.00;;;;;11.06;59.97;99763.00;5071900;28;45328;-65
2022/04/08 05:54:59;;;;;;;;;1.00;1.00;;;;;11.06;61.23;99763.88;5069232;28;45483;-65
2022/04/08 05:57:25;;;;;;;;;1.50;0.50;;;;;11.08;61.90;99761.94;5073168;28;46000;-62
2022/04/08 05:59:50;;;;;;;;;2.00;0.25;;;;;11.09;62.04;99757.50;5070917;28;45317;-62
2022/04/08 06:02:16;;;;;;;;;2.00;1.00;;;;;11.10;62.14;99748.63;5061845;28;46310;-62
2022/04/08 06:04:42;;;;;;;;;0.75;0.00;;;;;11.09;61.39;99739.06;5068102;28;45383;-62
2022/04/08 06:07:07;;;;;;;;;0.75;0.00;;;;;11.07;60.59;99731.28;5071747;27;45335;-65
2022/04/08 06:09:34;;;;;;;;;0.00;0.00;;;;;11.05;60.56;99733.16;5087228;27;45344;-62
2022/04/08 06:11:59;;;;;;;;;1.00;0.00;;;;;11.01;61.54;99729.09;5061826;28;45421;-62
2022/04/08 06:14:26;;;;;;;;;1.25;0.25;;;;;11.00;61.17;99721.31;5062280;28;45434;-63
2022/04/08 06:16:52;;;;;;;;;1.50;1.00;;;;;10.96;61.52;99717.22;5063229;27;45230;-63
2022/04/08 06:19:18;;;;;;;;;0.00;0.00;;;;;10.95;62.13;99710.28;5068663;27;45303;-62
2022/04/08 06:21:43;;;;;;;;;0.00;0.00;;;;;10.91;61.82;99704.44;5083526;27;45277;-64
2022/04/08 06:24:09;;;;;;;;;1.00;1.00;;;;;10.86;62.11;99703.94;5071151;27;45372;-63
2022/04/08 06:26:36;;;;;;;;;1.00;0.00;;;;;10.83;62.10;99691.84;5068720;27;45379;-63
2022/04/08 06:29:02;;;;;;;;;1.00;0.00;;;;;10.78;61.55;99688.72;5077089;28;45381;-64
2022/04/08 06:31:29;;;;;;;;;1.50;0.00;;;;;10.80;62.21;99675.44;5082773;28;45359;-63
2022/04/08 06:33:57;;;;;;;;;1.00;1.00;;;;;10.81;62.54;99672.66;5076906;28;45354;-64
2022/04/08 06:36:23;;;;;;;;;3.00;1.50;;;;;10.80;62.68;99671.00;5098659;27;46967;-63
2022/04/08 06:38:49;;;;;;;;;2.75;0.00;;;;;10.78;62.95;99672.06;5083031;27;45440;-63
2022/04/08 06:41:14;;;;;;;;;3.50;1.00;;;;;10.76;62.64;99664.31;5083189;27;45431;-63
2022/04/08 06:43:40;;;;;;;;;0.25;0.00;;;;;10.77;62.21;99670.41;5083030;27;45413;-63
2022/04/08 06:46:05;;;;;;;;;0.00;0.00;;;;;10.70;60.66;99666.56;5082727;28;45416;-63
2022/04/08 06:48:31;;;;;;;;;2.00;0.00;;;;;10.68;61.29;99666.69;5077083;27;45406;-63
2022/04/08 06:50:58;;;;;;;;;0.25;0.00;;;;;10.69;61.13;99665.72;5073582;28;45332;-63
2022/04/08 06:53:24;;;;;;;;;1.00;0.00;;;;;10.70;60.50;99669.19;5083174;28;45427;-63
2022/04/08 06:55:50;;;;;;;;;0.75;0.75;;;;;10.64;61.69;99662.59;5083089;28;45276;-63
2022/04/08 06:58:15;;;;;;;;;3.00;0.00;;;;;10.65;62.04;99668.69;5081974;28;45281;-63
2022/04/08 07:00:41;;;;;;;;;1.00;0.75;;;;;10.63;61.68;99666.19;5072418;27;45375;-63
2022/04/08 07:03:06;;;;;;;;;1.00;0.25;;;;;10.58;61.82;99670.97;5062644;28;45198;-63
2022/04/08 07:05:32;;;;;;;;;0.00;0.00;;;;;10.51;61.07;99670.63;5072553;27;45396;-63
2022/04/08 07:07:57;;;;;;;;;4.00;0.00;;;;;10.47;61.91;99663.88;5070482;27;45250;-65
2022/04/08 07:10:23;;;;;;;;;7.50;2.00;;;;;10.50;62.75;99660.16;5075778;27;45286;-65
2022/04/08 07:12:48;;;;;;;;;2.00;2.00;;;;;10.49;62.46;99656.69;5068041;27;45219;-66
2022/04/08 07:15:14;;;;;;;;;3.00;1.50;;;;;10.50;63.92;99647.84;5076056;27;45380;-66
2022/04/08 07:17:39;;;;;;;;;1.25;1.00;;;;;10.53;64.63;99644.16;5078945;27;45394;-66
2022/04/08 07:20:06;;;;;;;;;2.00;1.00;;;;;10.56;63.83;99638.66;5062240;28;45518;-66
2022/04/08 07:22:32;;;;;;;;;1.00;1.00;;;;;10.57;64.08;99635.06;5062379;28;45307;-65
2022/04/08 07:24:57;;;;;;;;;1.00;1.00;;;;;10.59;64.34;99631.38;5061848;28;45455;-66
2022/04/08 07:27:23;;;;;;;;;2.00;2.00;;;;;10.57;64.28;99621.88;5061887;28;45326;-66
2022/04/08 07:29:50;;;;;;;;;5.50;2.00;;;;;10.58;64.50;99620.94;5062091;28;45363;-66
2022/04/08 07:32:22;;;;;;;;;3.50;2.00;;;;;10.57;64.50;99609.56;5061121;28;45164;-66
2022/04/08 07:34:50;;;;;;;;;3.00;1.00;;;;;10.59;64.48;99604.19;5060719;28;46013;-66
2022/04/08 07:37:30;;;;;;;;;2.50;2.00;;;;;10.60;64.57;99600.59;5068625;28;45256;-66
2022/04/08 07:39:56;;;;;;;;;2.50;2.00;;;;;10.53;65.43;99596.75;5080311;28;45362;-66
2022/04/08 07:42:23;;;;;;;;;2.25;2.25;;;;;10.51;65.74;99586.34;5062054;28;45503;-67
2022/04/08 07:44:48;;;;;;;;;2.00;2.00;;;;;10.52;65.00;99581.94;5061404;28;46109;-66
2022/04/08 07:47:14;;;;;;;;;1.75;1.50;;;;;10.52;64.60;99569.59;5061786;28;45300;-66
2022/04/08 07:49:40;;;;;;;;;3.50;2.25;;;;;10.52;64.45;99556.44;5061822;28;45319;-66
2022/04/08 07:52:06;;;;;;;;;2.00;1.00;;;;;10.53;64.26;99539.66;5062174;28;45414;-68
2022/04/08 07:54:31;;;;;;;;;2.00;2.00;;;;;10.51;64.36;99544.22;5061600;28;46151;-67
2022/04/08 07:56:56;;;;;;;;;4.00;2.00;;;;;10.49;64.08;99540.03;5061917;28;45206;-66
2022/04/08 07:59:22;;;;;;;;;2.00;1.00;;;;;10.43;63.91;99533.47;5061805;28;45269;-66
2022/04/08 08:01:48;;;;;;;;;2.75;1.75;;;;;10.44;64.18;99518.50;5061766;28;45232;-66
2022/04/08 08:04:14;;;;;;;;;3.50;1.00;;;;;10.45;64.39;99513.09;5061591;28;46382;-67
2022/04/08 08:06:40;;;;;;;;;1.50;1.50;;;;;10.44;64.33;99507.97;5061762;28;45256;-67
2022/04/08 08:09:05;;;;;;;;;2.50;1.25;;;;;10.42;64.68;99494.91;5061798;28;45571;-67
2022/04/08 08:11:31;;;;;;;;;11.50;2.75;;;;;10.40;64.70;99499.47;5061695;28;45375;-66
2022/04/08 08:13:58;;;;;;;;;3.25;2.75;;;;;10.39;64.36;99503.06;5071849;28;45447;-67
2022/04/08 08:16:23;;;;;;;;;2.25;2.00;;;;;10.41;64.15;99487.97;5061165;28;45366;-66
2022/04/08 08:18:50;;;;;;;;;3.00;2.00;;;;;10.39;64.34;99489.06;5061564;28;45291;-67
2022/04/08 08:21:16;;;;;;;;;3.25;2.00;;;;;10.39;65.00;99496.94;5072999;28;45375;-66
2022/04/08 08:23:41;;;;;;;;;2.00;1.00;;;;;10.34;63.68;99490.22;5081430;28;45171;-66
2022/04/08 08:26:07;;;;;;;;;1.00;1.00;;;;;10.28;63.38;99474.94;5081700;28;45192;-67
2022/04/08 08:28:32;;;;;;;;;3.00;2.00;;;;;10.18;62.92;99466.03;5081642;28;45303;-66
2022/04/08 08:30:58;;;;;;;;;2.50;1.00;;;;;10.13;63.36;99483.16;5080962;28;45403;-66
2022/04/08 08:33:23;;;;;;;;;1.00;1.00;;;;;10.06;63.62;99475.72;5081340;28;46277;-66
2022/04/08 08:35:49;;;;;;;;;1.75;1.00;;;;;10.06;63.63;99454.69;5081465;28;45374;-66
2022/04/08 08:38:15;;;;;;;;;3.75;2.00;;;;;10.10;64.23;99446.53;5079799;28;45350;-66
2022/04/08 08:40:44;;;;;;;;;8.00;3.25;;;;;10.14;65.16;99437.47;5070111;28;45600;-66
2022/04/08 08:43:17;;;;;;;;;4.25;2.75;;;;;10.23;65.04;99449.94;5060965;28;46227;-66
2022/04/08 08:45:45;;;;;;;;;7.50;3.25;;;;;10.25;65.47;99443.59;5061085;28;45281;-66
2022/04/08 08:48:14;;;;;;;;;3.25;2.75;;;;;10.24;64.97;99443.72;5061024;28;45469;-66
2022/04/08 08:50:44;;;;;;;;;4.00;3.00;;;;;10.20;65.67;99429.09;5060934;28;45462;-66
2022/04/08 08:53:10;;;;;;;;;3.25;2.75;;;;;10.17;65.22;99424.06;5068052;28;45452;-66
2022/04/08 08:55:35;;;;;;;;;2.00;1.75;;;;;10.10;65.38;99430.75;5081245;28;45214;-65
2022/04/08 08:58:00;;;;;;;;;3.00;3.00;;;;;10.07;65.73;99418.69;5081579;28;45264;-66
2022/04/08 09:00:26;;;;;;;;;5.50;5.50;;;;;10.05;66.13;99416.19;5081398;28;45595;-66
2022/04/08 09:02:51;;;;;;;;;2.75;2.00;;;;;10.03;65.35;99404.09;5081050;28;45267;-66
2022/04/08 09:05:18;;;;;;;;;7.75;2.25;;;;;10.01;66.05;99387.59;5081164;28;45238;-66
2022/04/08 09:08:01;;;;;;;;;7.25;2.50;;;;;10.01;65.38;99351.59;5081398;28;45313;-66
2022/04/08 09:10:31;;;;;;;;;3.00;3.00;;;;;9.98;65.34;99336.06;5081207;28;45535;-66
2022/04/08 09:12:59;;;;;;;;;2.75;2.75;;;;;9.93;65.40;99342.63;5081107;28;45526;-66
2022/04/08 09:15:26;;;;;;;;;3.25;2.25;;;;;9.90;65.29;99356.88;5063938;27;45307;-66
2022/04/08 09:17:52;;;;;;;;;1.50;1.00;;;;;9.88;65.40;99369.31;5060822;28;45322;-66
2022/04/08 09:20:19;;;;;;;;;0.25;0.25;;;;;9.85;65.60;99364.28;5064461;28;45264;-66
2022/04/08 09:22:54;;;;;;;;;3.00;1.50;;;;;9.77;65.18;99338.59;5081256;28;46127;-65
2022/04/08 09:25:24;;;;;;;;;2.00;1.50;;;;;9.71;65.91;99325.06;5080822;28;45475;-66
2022/04/08 09:27:50;;;;;;;;;2.00;1.00;;;;;9.62;65.10;99321.38;5081138;28;45452;-65
2022/04/08 09:30:19;;;;;;;;;2.00;0.00;;;;;9.48;65.26;99324.25;5080805;28;45331;-66
2022/04/08 09:32:45;;;;;;;;;2.00;1.75;;;;;9.45;65.92;99338.44;5080324;28;46354;-66
2022/04/08 09:35:20;;;;;;;;;2.25;2.25;;;;;9.43;65.90;99344.78;5080712;28;45349;-66
2022/04/08 09:37:59;;;;;;;;;2.25;1.00;;;;;9.44;66.31;99370.13;5080859;28;45456;-66
2022/04/08 09:40:24;;;;;;;;;4.00;1.00;;;;;9.47;65.50;99390.91;5071805;28;45473;-66
2022/04/08 09:42:50;;;;;;;;;2.00;2.00;;;;;9.46;66.09;99373.47;5060298;28;45232;-66
2022/04/08 09:45:26;;;;;;;;;2.50;2.00;;;;;9.43;66.08;99344.78;5060597;28;45327;-66
2022/04/08 09:47:52;;;;;;;;;2.00;2.00;;;;;9.32;66.99;99361.38;5060049;28;45313;-66
2022/04/08 09:50:17;;;;;;;;;3.00;3.00;;;;;9.27;67.75;99376.66;5063342;28;45503;-67
2022/04/08 09:52:44;;;;;;;;;3.50;1.00;;;;;9.25;68.47;99367.22;5063668;28;46163;-66
2022/04/08 09:55:11;;;;;;;;;1.75;1.75;;;;;9.26;68.35;99347.88;5064040;28;45446;-66
2022/04/08 09:57:39;;;;;;;;;3.00;2.00;;;;;9.25;68.59;99307.63;5063876;28;45319;-66
2022/04/08 10:00:06;;;;;;;;;2.00;1.00;;;;;9.24;69.03;99337.47;5063925;28;45525;-66
2022/04/08 10:02:35;;;;;;;;;1.00;0.75;;;;;9.19;68.87;99400.88;5063228;28;46299;-66
2022/04/08 10:05:02;;;;;;;;;2.75;1.75;;;;;9.14;69.27;99379.34;5063682;28;45415;-66
2022/04/08 10:07:29;;;;;;;;;1.00;1.00;;;;;9.14;68.81;99336.50;5063527;28;45337;-66
2022/04/08 10:10:06;;;;;;;;;3.25;2.25;;;;;9.09;69.15;99365.75;5063612;28;45332;-66
2022/04/08 10:12:54;;;;;;;;;1.00;1.00;;;;;9.02;69.59;99429.38;5063497;28;45267;-66
2022/04/08 10:15:27;;;;;;;;;2.25;2.00;;;;;9.00;69.84;99420.72;5067307;28;45383;-66
2022/04/08 10:17:59;;;;;;;;;4.00;3.75;;;;;9.01;70.56;99376.00;5063132;28;45248;-66
2022/04/08 10:20:28;;;;;;;;;2.00;1.50;;;;;9.02;69.60;99348.78;5068061;28;45418;-66
2022/04/08 10:23:14;;;;;;;;;1.25;1.25;;;;;9.00;69.57;99352.44;5083379;27;45290;-67
2022/04/08 10:25:42;;;;;;;;;1.00;1.00;;;;;8.90;69.83;99324.25;5083456;28;45445;-66
2022/04/08 10:28:09;;;;;;;;;1.00;1.00;;;;;8.85;69.79;99315.91;5083502;28;45497;-66
2022/04/08 10:30:43;;;;;;;;;1.75;1.75;;;;;8.82;70.37;99308.22;5083642;28;45424;-67
2022/04/08 10:33:09;;;;;;;;;1.00;1.00;;;;;8.85;70.31;99291.44;5083030;28;45414;-66
2022/04/08 10:35:37;;;;;;;;;1.25;1.25;;;;;8.87;70.15;99258.84;5083284;28;45289;-66
2022/04/08 10:38:05;;;;;;;;;2.25;2.00;;;;;8.86;69.93;99215.16;5082944;28;45367;-66
2022/04/08 10:40:35;;;;;;;;;1.25;1.00;;;;;8.90;70.22;99247.25;5073470;28;45580;-66
2022/04/08 10:43:05;;;;;;;;;1.50;1.00;;;;;8.87;69.69;99229.97;5062893;28;46100;-66
2022/04/08 10:45:30;;;;;;;;;2.25;2.00;;;;;8.84;69.97;99226.72;5062979;28;45372;-66
2022/04/08 10:48:01;;;;;;;;;6.00;1.00;;;;;8.79;70.16;99237.59;5062589;28;45343;-66
2022/04/08 10:50:30;;;;;;;;;2.25;2.00;;;;;8.83;70.19;99222.41;5062961;28;45327;-66
2022/04/08 10:53:09;;;;;;;;;5.00;3.00;;;;;8.86;70.42;99240.59;5062672;28;45344;-66
2022/04/08 10:55:56;;;;;;;;;6.25;2.50;;;;;8.88;70.69;99278.91;5062787;28;45313;-66
2022/04/08 10:58:35;;;;;;;;;3.00;3.00;;;;;8.88;70.13;99299.91;5072974;28;45176;-65
2022/04/08 11:01:12;;;;;;;;;2.00;2.00;;;;;8.89;69.79;99193.06;5082318;28;45482;-66
2022/04/08 11:03:41;;;;;;;;;3.25;2.00;;;;;8.77;69.86;99188.75;5082999;28;45424;-66
2022/04/08 11:06:07;;;;;;;;;1.75;1.00;;;;;8.69;70.41;99286.50;5083056;28;45283;-66
2022/04/08 11:08:33;;;;;;;;;0.00;0.00;;;;;8.62;70.32;99270.38;5083294;28;45327;-66
2022/04/08 11:10:59;;;;;;;;;2.75;1.00;;;;;8.59;70.13;99254.81;5083039;28;45658;-67
2022/04/08 11:13:25;;;;;;;;;2.00;1.00;;;;;8.57;70.86;99234.91;5082749;28;46180;-66
2022/04/08 11:15:50;;;;;;;;;2.50;2.00;;;;;8.61;70.41;99242.44;5068961;28;45687;-66
2022/04/08 11:18:16;;;;;;;;;1.00;1.00;;;;;8.68;70.77;99237.53;5082970;28;45323;-66
2022/04/08 11:20:48;;;;;;;;;2.00;2.00;;;;;8.73;70.41;99224.09;5072541;28;45564;-65
2022/04/08 11:23:13;;;;;;;;;2.25;1.25;;;;;8.71;69.99;99212.88;5082556;28;45424;-66
2022/04/08 11:25:39;;;;;;;;;3.50;2.50;;;;;8.67;70.28;99214.88;5082803;28;45244;-66
2022/04/08 11:28:05;;;;;;;;;3.00;2.00;;;;;8.70;70.74;99204.16;5082863;28;45298;-65
2022/04/08 11:30:35;;;;;;;;;3.00;2.00;;;;;8.76;70.49;99187.09;5075038;28;46745;-65